EPKK/KRK METAR and TAF weather

Enter ICAO airport designator
Station Type Date Time Source
EPKK METAR 2021/09/24 01:00 UTC NOAA

EPKK 240100Z 25018KT 9999 -RA BKN043 15/10 Q1006


Station Type Date Time Source
EPKK Decoded METAR 2021/09/24 01:00 UTC NOAA

Krakow, Poland (EPKK) 50-05N 019-48E 237M
Sep 23, 2021 - 09:00 PM EDT / 2021.09.24 0100 UTC
Wind: from the WSW (250 degrees) at 21 MPH (18 KT):0
Visibility: greater than 7 mile(s):0
Sky conditions: mostly cloudy
Weather: light rain
Temperature: 59 F (15 C)
Dew Point: 50 F (10 C)
Relative Humidity: 72%
Pressure (altimeter): 29.71 in. Hg (1006 hPa)
ob: EPKK 240100Z 25018KT 9999 -RA BKN043 15/10 Q1006
cycle: 1

Station Type Date Time Source
EPKK TAF 2021/09/23 21:36 UTC NOAA

TAF EPKK 232030Z 2321/2421 24014KT 9999 SCT040
TEMPO 2321/2324 24016G30KT
TEMPO 2400/2406 25020G40KT 4000 SHRA BKN013 BKN020CB
TEMPO 2406/2414 24016G30KT

Example: see airport list